sensor_id;sensor_type;location;lat;lon;timestamp;P1;durP1;ratioP1;P2;durP2;ratioP2
70549;SDS011;58101;48.658;2.328;2023-03-23T00:01:52;5.85;;;1.45;;
70549;SDS011;58101;48.658;2.328;2023-03-23T00:04:21;5.72;;;1.38;;
70549;SDS011;58101;48.658;2.328;2023-03-23T00:06:47;5.07;;;1.30;;
70549;SDS011;58101;48.658;2.328;2023-03-23T00:09:15;5.47;;;1.50;;
70549;SDS011;58101;48.658;2.328;2023-03-23T00:11:42;5.15;;;1.45;;
70549;SDS011;58101;48.658;2.328;2023-03-23T00:14:08;6.03;;;1.40;;
70549;SDS011;58101;48.658;2.328;2023-03-23T00:16:38;6.10;;;1.58;;
70549;SDS011;58101;48.658;2.328;2023-03-23T00:19:07;6.65;;;1.42;;
70549;SDS011;58101;48.658;2.328;2023-03-23T00:21:36;5.60;;;1.40;;
70549;SDS011;58101;48.658;2.328;2023-03-23T00:24:10;4.95;;;1.30;;
70549;SDS011;58101;48.658;2.328;2023-03-23T00:26:38;5.50;;;1.40;;
70549;SDS011;58101;48.658;2.328;2023-03-23T00:29:08;7.32;;;1.40;;
70549;SDS011;58101;48.658;2.328;2023-03-23T00:31:47;6.95;;;1.55;;
70549;SDS011;58101;48.658;2.328;2023-03-23T00:34:15;7.40;;;1.50;;
70549;SDS011;58101;48.658;2.328;2023-03-23T00:36:49;7.53;;;1.60;;
70549;SDS011;58101;48.658;2.328;2023-03-23T00:39:22;5.90;;;1.60;;
70549;SDS011;58101;48.658;2.328;2023-03-23T00:41:52;6.35;;;1.70;;
70549;SDS011;58101;48.658;2.328;2023-03-23T00:44:19;6.72;;;1.65;;
70549;SDS011;58101;48.658;2.328;2023-03-23T00:46:49;6.05;;;1.70;;
70549;SDS011;58101;48.658;2.328;2023-03-23T00:49:16;6.00;;;1.60;;
70549;SDS011;58101;48.658;2.328;2023-03-23T00:51:44;7.10;;;1.70;;
70549;SDS011;58101;48.658;2.328;2023-03-23T00:54:10;6.38;;;1.73;;
70549;SDS011;58101;48.658;2.328;2023-03-23T00:56:36;5.93;;;1.50;;
70549;SDS011;58101;48.658;2.328;2023-03-23T00:59:04;7.38;;;1.60;;
70549;SDS011;58101;48.658;2.328;2023-03-23T01:01:30;6.22;;;1.80;;
70549;SDS011;58101;48.658;2.328;2023-03-23T01:03:57;6.45;;;1.48;;
70549;SDS011;58101;48.658;2.328;2023-03-23T01:06:26;5.78;;;1.70;;
70549;SDS011;58101;48.658;2.328;2023-03-23T01:08:53;6.75;;;1.55;;
70549;SDS011;58101;48.658;2.328;2023-03-23T01:11:21;9.00;;;1.70;;
70549;SDS011;58101;48.658;2.328;2023-03-23T01:18:40;7.00;;;1.40;;
70549;SDS011;58101;48.658;2.328;2023-03-23T01:21:09;7.55;;;1.80;;
70549;SDS011;58101;48.658;2.328;2023-03-23T01:23:37;5.57;;;1.58;;
70549;SDS011;58101;48.658;2.328;2023-03-23T01:26:10;6.18;;;1.60;;
70549;SDS011;58101;48.658;2.328;2023-03-23T01:28:40;7.53;;;1.70;;
70549;SDS011;58101;48.658;2.328;2023-03-23T01:31:08;7.38;;;1.60;;
70549;SDS011;58101;48.658;2.328;2023-03-23T01:33:37;5.50;;;1.38;;
70549;SDS011;58101;48.658;2.328;2023-03-23T01:36:10;9.25;;;1.70;;
70549;SDS011;58101;48.658;2.328;2023-03-23T01:38:38;6.80;;;1.50;;
70549;SDS011;58101;48.658;2.328;2023-03-23T01:41:04;7.45;;;1.60;;
70549;SDS011;58101;48.658;2.328;2023-03-23T01:43:30;6.22;;;1.42;;
70549;SDS011;58101;48.658;2.328;2023-03-23T01:45:56;6.07;;;1.42;;
70549;SDS011;58101;48.658;2.328;2023-03-23T01:48:35;6.32;;;1.50;;
70549;SDS011;58101;48.658;2.328;2023-03-23T01:51:07;6.85;;;1.40;;
70549;SDS011;58101;48.658;2.328;2023-03-23T01:53:51;5.22;;;1.38;;
70549;SDS011;58101;48.658;2.328;2023-03-23T01:56:19;4.60;;;1.30;;
70549;SDS011;58101;48.658;2.328;2023-03-23T01:58:50;6.20;;;1.20;;
70549;SDS011;58101;48.658;2.328;2023-03-23T02:01:17;6.22;;;1.45;;
70549;SDS011;58101;48.658;2.328;2023-03-23T02:03:44;8.40;;;1.52;;
70549;SDS011;58101;48.658;2.328;2023-03-23T02:06:11;5.82;;;1.38;;
70549;SDS011;58101;48.658;2.328;2023-03-23T02:08:40;3.97;;;1.30;;
70549;SDS011;58101;48.658;2.328;2023-03-23T02:11:13;5.35;;;1.40;;
70549;SDS011;58101;48.658;2.328;2023-03-23T02:13:41;7.45;;;1.35;;
70549;SDS011;58101;48.658;2.328;2023-03-23T02:27:48;6.65;;;1.48;;
70549;SDS011;58101;48.658;2.328;2023-03-23T02:33:35;5.18;;;1.30;;
70549;SDS011;58101;48.658;2.328;2023-03-23T02:36:09;7.85;;;1.40;;
70549;SDS011;58101;48.658;2.328;2023-03-23T02:39:01;7.60;;;1.50;;
70549;SDS011;58101;48.658;2.328;2023-03-23T02:41:51;6.88;;;1.88;;
70549;SDS011;58101;48.658;2.328;2023-03-23T02:44:27;6.22;;;1.60;;
70549;SDS011;58101;48.658;2.328;2023-03-23T02:46:55;6.10;;;1.40;;
70549;SDS011;58101;48.658;2.328;2023-03-23T02:49:22;7.10;;;1.50;;
70549;SDS011;58101;48.658;2.328;2023-03-23T02:51:50;6.80;;;1.38;;
70549;SDS011;58101;48.658;2.328;2023-03-23T02:54:21;6.20;;;1.45;;
70549;SDS011;58101;48.658;2.328;2023-03-23T02:56:50;6.38;;;1.40;;
70549;SDS011;58101;48.658;2.328;2023-03-23T02:59:17;5.95;;;1.42;;
70549;SDS011;58101;48.658;2.328;2023-03-23T03:04:13;5.75;;;1.40;;
70549;SDS011;58101;48.658;2.328;2023-03-23T03:09:42;7.05;;;1.55;;
70549;SDS011;58101;48.658;2.328;2023-03-23T03:12:20;6.88;;;1.60;;
70549;SDS011;58101;48.658;2.328;2023-03-23T03:15:11;8.40;;;1.70;;
70549;SDS011;58101;48.658;2.328;2023-03-23T03:17:51;6.45;;;1.45;;
70549;SDS011;58101;48.658;2.328;2023-03-23T03:20:31;5.43;;;1.30;;
70549;SDS011;58101;48.658;2.328;2023-03-23T03:22:59;6.95;;;1.60;;
70549;SDS011;58101;48.658;2.328;2023-03-23T03:25:28;7.28;;;1.60;;
70549;SDS011;58101;48.658;2.328;2023-03-23T03:27:54;5.82;;;1.55;;
70549;SDS011;58101;48.658;2.328;2023-03-23T03:30:22;5.68;;;1.50;;
70549;SDS011;58101;48.658;2.328;2023-03-23T03:32:52;8.77;;;1.70;;
70549;SDS011;58101;48.658;2.328;2023-03-23T03:35:21;5.30;;;1.40;;
70549;SDS011;58101;48.658;2.328;2023-03-23T03:37:49;5.72;;;1.45;;
70549;SDS011;58101;48.658;2.328;2023-03-23T03:40:16;5.75;;;1.40;;
70549;SDS011;58101;48.658;2.328;2023-03-23T03:42:43;6.25;;;1.50;;
70549;SDS011;58101;48.658;2.328;2023-03-23T03:45:11;6.95;;;1.60;;
70549;SDS011;58101;48.658;2.328;2023-03-23T03:47:39;6.00;;;1.42;;
70549;SDS011;58101;48.658;2.328;2023-03-23T03:50:05;5.78;;;1.48;;
70549;SDS011;58101;48.658;2.328;2023-03-23T03:52:31;5.25;;;1.60;;
70549;SDS011;58101;48.658;2.328;2023-03-23T03:54:58;8.10;;;1.65;;
70549;SDS011;58101;48.658;2.328;2023-03-23T03:57:23;5.53;;;1.50;;
70549;SDS011;58101;48.658;2.328;2023-03-23T03:59:49;5.70;;;1.65;;
70549;SDS011;58101;48.658;2.328;2023-03-23T04:02:15;8.02;;;1.58;;
70549;SDS011;58101;48.658;2.328;2023-03-23T04:04:45;5.32;;;1.50;;
70549;SDS011;58101;48.658;2.328;2023-03-23T04:07:12;7.60;;;1.77;;
70549;SDS011;58101;48.658;2.328;2023-03-23T04:12:05;4.95;;;1.40;;
70549;SDS011;58101;48.658;2.328;2023-03-23T04:14:33;4.57;;;1.33;;
70549;SDS011;58101;48.658;2.328;2023-03-23T04:16:59;5.15;;;1.50;;
70549;SDS011;58101;48.658;2.328;2023-03-23T04:19:25;5.03;;;1.42;;
70549;SDS011;58101;48.658;2.328;2023-03-23T04:21:53;5.35;;;1.67;;
70549;SDS011;58101;48.658;2.328;2023-03-23T04:24:20;5.53;;;1.60;;
70549;SDS011;58101;48.658;2.328;2023-03-23T04:26:49;6.78;;;1.70;;
70549;SDS011;58101;48.658;2.328;2023-03-23T04:29:19;5.57;;;1.42;;
70549;SDS011;58101;48.658;2.328;2023-03-23T04:31:45;4.90;;;1.50;;
70549;SDS011;58101;48.658;2.328;2023-03-23T04:34:11;6.28;;;1.40;;
70549;SDS011;58101;48.658;2.328;2023-03-23T04:36:41;7.88;;;1.65;;
70549;SDS011;58101;48.658;2.328;2023-03-23T04:39:07;6.10;;;1.60;;
70549;SDS011;58101;48.658;2.328;2023-03-23T04:41:37;6.72;;;1.67;;
70549;SDS011;58101;48.658;2.328;2023-03-23T04:44:03;7.38;;;1.60;;
70549;SDS011;58101;48.658;2.328;2023-03-23T04:51:26;6.07;;;1.70;;
70549;SDS011;58101;48.658;2.328;2023-03-23T04:53:53;6.90;;;1.50;;
70549;SDS011;58101;48.658;2.328;2023-03-23T04:56:19;6.55;;;1.65;;
70549;SDS011;58101;48.658;2.328;2023-03-23T04:58:45;4.88;;;1.40;;
70549;SDS011;58101;48.658;2.328;2023-03-23T05:01:11;5.57;;;1.50;;
70549;SDS011;58101;48.658;2.328;2023-03-23T05:03:40;6.93;;;1.50;;
70549;SDS011;58101;48.658;2.328;2023-03-23T05:06:06;5.28;;;1.30;;
70549;SDS011;58101;48.658;2.328;2023-03-23T05:08:43;5.40;;;1.42;;
70549;SDS011;58101;48.658;2.328;2023-03-23T05:11:08;6.90;;;1.50;;
70549;SDS011;58101;48.658;2.328;2023-03-23T05:13:34;7.63;;;1.38;;
70549;SDS011;58101;48.658;2.328;2023-03-23T05:16:04;5.20;;;1.50;;
70549;SDS011;58101;48.658;2.328;2023-03-23T05:18:31;5.78;;;1.52;;
70549;SDS011;58101;48.658;2.328;2023-03-23T05:21:01;6.18;;;1.70;;
70549;SDS011;58101;48.658;2.328;2023-03-23T05:23:28;5.13;;;1.42;;
70549;SDS011;58101;48.658;2.328;2023-03-23T05:25:56;6.00;;;1.42;;
70549;SDS011;58101;48.658;2.328;2023-03-23T05:28:25;6.05;;;1.67;;
70549;SDS011;58101;48.658;2.328;2023-03-23T05:30:55;4.53;;;1.30;;
70549;SDS011;58101;48.658;2.328;2023-03-23T05:33:21;6.38;;;1.55;;
70549;SDS011;58101;48.658;2.328;2023-03-23T05:35:48;5.00;;;1.60;;
70549;SDS011;58101;48.658;2.328;2023-03-23T05:38:14;5.75;;;1.65;;
70549;SDS011;58101;48.658;2.328;2023-03-23T05:40:41;5.88;;;1.55;;
70549;SDS011;58101;48.658;2.328;2023-03-23T05:43:07;6.43;;;1.73;;
70549;SDS011;58101;48.658;2.328;2023-03-23T05:45:33;7.93;;;1.80;;
70549;SDS011;58101;48.658;2.328;2023-03-23T05:48:00;5.70;;;1.30;;
70549;SDS011;58101;48.658;2.328;2023-03-23T05:50:25;5.78;;;1.45;;
70549;SDS011;58101;48.658;2.328;2023-03-23T05:52:53;5.50;;;1.40;;
70549;SDS011;58101;48.658;2.328;2023-03-23T05:55:20;5.78;;;1.48;;
70549;SDS011;58101;48.658;2.328;2023-03-23T05:57:45;7.50;;;1.35;;
70549;SDS011;58101;48.658;2.328;2023-03-23T06:00:11;5.70;;;1.70;;
70549;SDS011;58101;48.658;2.328;2023-03-23T06:02:44;6.72;;;1.70;;
70549;SDS011;58101;48.658;2.328;2023-03-23T06:07:37;6.10;;;1.80;;
70549;SDS011;58101;48.658;2.328;2023-03-23T06:10:06;5.15;;;1.50;;
70549;SDS011;58101;48.658;2.328;2023-03-23T06:12:33;9.65;;;1.95;;
70549;SDS011;58101;48.658;2.328;2023-03-23T06:15:03;9.45;;;2.03;;
70549;SDS011;58101;48.658;2.328;2023-03-23T06:17:31;6.13;;;1.80;;
70549;SDS011;58101;48.658;2.328;2023-03-23T06:19:58;6.10;;;2.00;;
70549;SDS011;58101;48.658;2.328;2023-03-23T06:22:24;8.93;;;1.98;;
70549;SDS011;58101;48.658;2.328;2023-03-23T06:24:51;6.88;;;1.92;;
70549;SDS011;58101;48.658;2.328;2023-03-23T06:27:17;7.85;;;2.05;;
70549;SDS011;58101;48.658;2.328;2023-03-23T06:29:45;10.50;;;2.25;;
70549;SDS011;58101;48.658;2.328;2023-03-23T06:32:11;8.18;;;2.30;;
70549;SDS011;58101;48.658;2.328;2023-03-23T06:34:38;5.35;;;1.80;;
70549;SDS011;58101;48.658;2.328;2023-03-23T06:37:06;6.35;;;1.65;;
70549;SDS011;58101;48.658;2.328;2023-03-23T06:39:32;7.00;;;2.00;;
70549;SDS011;58101;48.658;2.328;2023-03-23T06:41:58;5.78;;;1.88;;
70549;SDS011;58101;48.658;2.328;2023-03-23T06:44:26;7.28;;;2.05;;
70549;SDS011;58101;48.658;2.328;2023-03-23T06:46:52;6.20;;;2.00;;
70549;SDS011;58101;48.658;2.328;2023-03-23T06:49:17;7.47;;;2.10;;
70549;SDS011;58101;48.658;2.328;2023-03-23T06:51:43;6.82;;;2.20;;
70549;SDS011;58101;48.658;2.328;2023-03-23T06:54:09;7.80;;;2.28;;
70549;SDS011;58101;48.658;2.328;2023-03-23T06:56:34;7.80;;;2.00;;
70549;SDS011;58101;48.658;2.328;2023-03-23T06:59:00;5.43;;;1.75;;
70549;SDS011;58101;48.658;2.328;2023-03-23T07:01:26;6.30;;;1.77;;
70549;SDS011;58101;48.658;2.328;2023-03-23T07:03:53;6.20;;;1.70;;
70549;SDS011;58101;48.658;2.328;2023-03-23T07:06:20;6.63;;;1.80;;
70549;SDS011;58101;48.658;2.328;2023-03-23T07:08:46;6.28;;;1.92;;
70549;SDS011;58101;48.658;2.328;2023-03-23T07:11:12;7.47;;;1.90;;
70549;SDS011;58101;48.658;2.328;2023-03-23T07:13:38;7.20;;;1.63;;
70549;SDS011;58101;48.658;2.328;2023-03-23T07:16:04;6.65;;;1.80;;
70549;SDS011;58101;48.658;2.328;2023-03-23T07:18:31;7.68;;;1.80;;
70549;SDS011;58101;48.658;2.328;2023-03-23T07:20:56;5.93;;;1.88;;
70549;SDS011;58101;48.658;2.328;2023-03-23T07:23:22;5.78;;;1.63;;
70549;SDS011;58101;48.658;2.328;2023-03-23T07:25:48;7.05;;;2.10;;
70549;SDS011;58101;48.658;2.328;2023-03-23T07:28:14;6.78;;;1.98;;
70549;SDS011;58101;48.658;2.328;2023-03-23T07:30:40;7.05;;;1.85;;
70549;SDS011;58101;48.658;2.328;2023-03-23T07:33:09;7.47;;;1.80;;
70549;SDS011;58101;48.658;2.328;2023-03-23T07:35:35;7.22;;;1.80;;
70549;SDS011;58101;48.658;2.328;2023-03-23T07:38:02;5.82;;;1.75;;
70549;SDS011;58101;48.658;2.328;2023-03-23T07:40:29;7.38;;;1.77;;
70549;SDS011;58101;48.658;2.328;2023-03-23T07:42:58;7.55;;;1.75;;
70549;SDS011;58101;48.658;2.328;2023-03-23T07:45:24;7.07;;;1.52;;
70549;SDS011;58101;48.658;2.328;2023-03-23T07:47:51;7.18;;;1.60;;
70549;SDS011;58101;48.658;2.328;2023-03-23T07:50:18;5.88;;;1.70;;
70549;SDS011;58101;48.658;2.328;2023-03-23T07:52:47;5.55;;;1.60;;
70549;SDS011;58101;48.658;2.328;2023-03-23T07:55:12;5.82;;;1.40;;
70549;SDS011;58101;48.658;2.328;2023-03-23T07:57:42;6.30;;;1.48;;
70549;SDS011;58101;48.658;2.328;2023-03-23T08:00:14;7.65;;;1.80;;
70549;SDS011;58101;48.658;2.328;2023-03-23T08:02:43;6.38;;;1.52;;
70549;SDS011;58101;48.658;2.328;2023-03-23T08:05:13;5.78;;;1.60;;
70549;SDS011;58101;48.658;2.328;2023-03-23T08:07:40;6.47;;;1.45;;
70549;SDS011;58101;48.658;2.328;2023-03-23T08:10:07;6.97;;;1.80;;
70549;SDS011;58101;48.658;2.328;2023-03-23T08:12:41;6.72;;;1.50;;
70549;SDS011;58101;48.658;2.328;2023-03-23T08:15:08;6.22;;;1.60;;
70549;SDS011;58101;48.658;2.328;2023-03-23T08:17:37;5.35;;;1.38;;
70549;SDS011;58101;48.658;2.328;2023-03-23T08:20:05;7.65;;;1.50;;
70549;SDS011;58101;48.658;2.328;2023-03-23T08:22:37;7.55;;;1.88;;
70549;SDS011;58101;48.658;2.328;2023-03-23T08:25:05;8.70;;;1.75;;
70549;SDS011;58101;48.658;2.328;2023-03-23T08:27:33;5.78;;;1.35;;
70549;SDS011;58101;48.658;2.328;2023-03-23T08:29:59;6.45;;;1.50;;
70549;SDS011;58101;48.658;2.328;2023-03-23T08:32:25;5.07;;;1.42;;
70549;SDS011;58101;48.658;2.328;2023-03-23T08:34:51;5.18;;;1.40;;
70549;SDS011;58101;48.658;2.328;2023-03-23T08:37:17;7.35;;;1.60;;
70549;SDS011;58101;48.658;2.328;2023-03-23T08:39:43;7.00;;;1.52;;
70549;SDS011;58101;48.658;2.328;2023-03-23T08:42:09;8.18;;;1.48;;
70549;SDS011;58101;48.658;2.328;2023-03-23T08:44:42;7.00;;;1.60;;
70549;SDS011;58101;48.658;2.328;2023-03-23T08:47:15;7.07;;;1.50;;
70549;SDS011;58101;48.658;2.328;2023-03-23T08:55:21;7.10;;;1.63;;
70549;SDS011;58101;48.658;2.328;2023-03-23T08:57:47;12.38;;;1.73;;
70549;SDS011;58101;48.658;2.328;2023-03-23T09:00:14;7.75;;;1.80;;
70549;SDS011;58101;48.658;2.328;2023-03-23T09:02:45;6.38;;;1.52;;
70549;SDS011;58101;48.658;2.328;2023-03-23T09:08:11;6.03;;;1.40;;
70549;SDS011;58101;48.658;2.328;2023-03-23T09:10:58;9.90;;;1.58;;
70549;SDS011;58101;48.658;2.328;2023-03-23T09:13:24;7.25;;;1.70;;
70549;SDS011;58101;48.658;2.328;2023-03-23T09:15:59;8.15;;;1.80;;
70549;SDS011;58101;48.658;2.328;2023-03-23T09:18:25;7.53;;;1.70;;
70549;SDS011;58101;48.658;2.328;2023-03-23T09:21:09;9.00;;;1.65;;
70549;SDS011;58101;48.658;2.328;2023-03-23T09:23:35;11.68;;;1.70;;
70549;SDS011;58101;48.658;2.328;2023-03-23T09:26:01;11.93;;;2.00;;
70549;SDS011;58101;48.658;2.328;2023-03-23T09:28:30;9.80;;;1.58;;
70549;SDS011;58101;48.658;2.328;2023-03-23T09:30:59;11.23;;;1.90;;
70549;SDS011;58101;48.658;2.328;2023-03-23T09:33:29;10.90;;;1.80;;
70549;SDS011;58101;48.658;2.328;2023-03-23T09:49:39;9.32;;;1.83;;
70549;SDS011;58101;48.658;2.328;2023-03-23T09:54:48;5.97;;;1.52;;
70549;SDS011;58101;48.658;2.328;2023-03-23T09:57:22;9.00;;;1.75;;
70549;SDS011;58101;48.658;2.328;2023-03-23T10:02:38;7.20;;;1.70;;
70549;SDS011;58101;48.658;2.328;2023-03-23T10:05:47;7.60;;;1.60;;
70549;SDS011;58101;48.658;2.328;2023-03-23T10:08:11;9.13;;;1.80;;
70549;SDS011;58101;48.658;2.328;2023-03-23T10:16:03;8.80;;;1.83;;
70549;SDS011;58101;48.658;2.328;2023-03-23T10:18:43;10.80;;;1.90;;
70549;SDS011;58101;48.658;2.328;2023-03-23T10:21:35;8.55;;;1.85;;
70549;SDS011;58101;48.658;2.328;2023-03-23T10:24:09;8.30;;;1.70;;
70549;SDS011;58101;48.658;2.328;2023-03-23T10:26:47;9.30;;;1.85;;
70549;SDS011;58101;48.658;2.328;2023-03-23T10:29:32;9.13;;;2.15;;
70549;SDS011;58101;48.658;2.328;2023-03-23T10:35:02;7.82;;;1.80;;
70549;SDS011;58101;48.658;2.328;2023-03-23T10:37:32;16.40;;;2.38;;
70549;SDS011;58101;48.658;2.328;2023-03-23T10:40:03;8.15;;;1.80;;
70549;SDS011;58101;48.658;2.328;2023-03-23T10:42:36;10.32;;;2.08;;
70549;SDS011;58101;48.658;2.328;2023-03-23T10:51:02;9.95;;;1.88;;
70549;SDS011;58101;48.658;2.328;2023-03-23T10:53:32;9.43;;;2.13;;
70549;SDS011;58101;48.658;2.328;2023-03-23T10:56:03;11.55;;;2.20;;
70549;SDS011;58101;48.658;2.328;2023-03-23T10:58:31;9.05;;;1.95;;
70549;SDS011;58101;48.658;2.328;2023-03-23T11:00:59;10.55;;;2.20;;
70549;SDS011;58101;48.658;2.328;2023-03-23T11:08:51;10.70;;;1.90;;
70549;SDS011;58101;48.658;2.328;2023-03-23T11:11:19;12.38;;;2.38;;
70549;SDS011;58101;48.658;2.328;2023-03-23T11:13:55;13.45;;;2.40;;
70549;SDS011;58101;48.658;2.328;2023-03-23T11:16:24;9.82;;;2.10;;
70549;SDS011;58101;48.658;2.328;2023-03-23T11:18:54;12.30;;;2.30;;
70549;SDS011;58101;48.658;2.328;2023-03-23T11:21:20;10.98;;;2.28;;
70549;SDS011;58101;48.658;2.328;2023-03-23T11:23:53;9.13;;;2.08;;
70549;SDS011;58101;48.658;2.328;2023-03-23T11:26:30;9.05;;;1.83;;
70549;SDS011;58101;48.658;2.328;2023-03-23T11:29:04;11.07;;;2.60;;
70549;SDS011;58101;48.658;2.328;2023-03-23T11:31:42;8.15;;;2.05;;
70549;SDS011;58101;48.658;2.328;2023-03-23T11:34:35;13.02;;;2.42;;
70549;SDS011;58101;48.658;2.328;2023-03-23T11:37:13;11.00;;;2.30;;
70549;SDS011;58101;48.658;2.328;2023-03-23T11:42:21;14.65;;;2.33;;
70549;SDS011;58101;48.658;2.328;2023-03-23T11:44:53;11.98;;;2.40;;
70549;SDS011;58101;48.658;2.328;2023-03-23T11:50:16;13.57;;;2.30;;
70549;SDS011;58101;48.658;2.328;2023-03-23T11:52:47;10.55;;;2.20;;
70549;SDS011;58101;48.658;2.328;2023-03-23T11:55:28;8.73;;;2.20;;
70549;SDS011;58101;48.658;2.328;2023-03-23T11:57:55;15.88;;;2.78;;
70549;SDS011;58101;48.658;2.328;2023-03-23T12:00:28;12.75;;;2.45;;
70549;SDS011;58101;48.658;2.328;2023-03-23T12:03:03;10.95;;;3.20;;
70549;SDS011;58101;48.658;2.328;2023-03-23T12:05:47;11.63;;;2.33;;
70549;SDS011;58101;48.658;2.328;2023-03-23T12:13:41;13.23;;;2.63;;
70549;SDS011;58101;48.658;2.328;2023-03-23T12:24:41;12.13;;;2.05;;
70549;SDS011;58101;48.658;2.328;2023-03-23T12:27:25;10.80;;;2.03;;
70549;SDS011;58101;48.658;2.328;2023-03-23T12:30:13;9.70;;;2.05;;
70549;SDS011;58101;48.658;2.328;2023-03-23T12:33:08;10.93;;;2.10;;
70549;SDS011;58101;48.658;2.328;2023-03-23T12:36:03;9.65;;;1.90;;
70549;SDS011;58101;48.658;2.328;2023-03-23T12:44:28;8.57;;;1.80;;
70549;SDS011;58101;48.658;2.328;2023-03-23T12:47:27;8.57;;;2.13;;
70549;SDS011;58101;48.658;2.328;2023-03-23T12:50:13;10.43;;;2.05;;
70549;SDS011;58101;48.658;2.328;2023-03-23T12:55:33;7.57;;;1.60;;
70549;SDS011;58101;48.658;2.328;2023-03-23T13:06:17;9.18;;;1.70;;
70549;SDS011;58101;48.658;2.328;2023-03-23T13:11:32;10.40;;;1.80;;
70549;SDS011;58101;48.658;2.328;2023-03-23T13:22:46;9.48;;;1.90;;
70549;SDS011;58101;48.658;2.328;2023-03-23T13:28:13;11.05;;;2.15;;
70549;SDS011;58101;48.658;2.328;2023-03-23T13:33:44;8.90;;;2.10;;
70549;SDS011;58101;48.658;2.328;2023-03-23T13:36:27;11.80;;;1.98;;
70549;SDS011;58101;48.658;2.328;2023-03-23T13:39:16;12.45;;;2.28;;
70549;SDS011;58101;48.658;2.328;2023-03-23T13:42:34;11.60;;;1.90;;
70549;SDS011;58101;48.658;2.328;2023-03-23T13:44:43;10.60;;;2.10;;
70549;SDS011;58101;48.658;2.328;2023-03-23T13:55:30;9.80;;;1.90;;
70549;SDS011;58101;48.658;2.328;2023-03-23T14:00:35;8.43;;;2.33;;
70549;SDS011;58101;48.658;2.328;2023-03-23T14:10:59;8.25;;;1.90;;
70549;SDS011;58101;48.658;2.328;2023-03-23T14:18:53;9.15;;;2.10;;
70549;SDS011;58101;48.658;2.328;2023-03-23T14:21:32;7.32;;;1.77;;
70549;SDS011;58101;48.658;2.328;2023-03-23T14:24:15;9.65;;;1.70;;
70549;SDS011;58101;48.658;2.328;2023-03-23T14:26:47;8.85;;;1.65;;
70549;SDS011;58101;48.658;2.328;2023-03-23T14:29:17;8.45;;;2.10;;
70549;SDS011;58101;48.658;2.328;2023-03-23T14:31:43;8.35;;;1.88;;
70549;SDS011;58101;48.658;2.328;2023-03-23T14:34:14;7.28;;;1.77;;
70549;SDS011;58101;48.658;2.328;2023-03-23T14:36:43;10.15;;;2.03;;
70549;SDS011;58101;48.658;2.328;2023-03-23T14:41:50;6.20;;;1.52;;
70549;SDS011;58101;48.658;2.328;2023-03-23T14:44:20;7.63;;;1.90;;
70549;SDS011;58101;48.658;2.328;2023-03-23T14:46:49;9.52;;;1.83;;
70549;SDS011;58101;48.658;2.328;2023-03-23T14:49:15;8.32;;;1.95;;
70549;SDS011;58101;48.658;2.328;2023-03-23T14:51:51;10.13;;;2.25;;
70549;SDS011;58101;48.658;2.328;2023-03-23T14:54:26;7.80;;;1.90;;
70549;SDS011;58101;48.658;2.328;2023-03-23T14:56:54;8.00;;;1.67;;
70549;SDS011;58101;48.658;2.328;2023-03-23T15:01:46;8.10;;;1.65;;
70549;SDS011;58101;48.658;2.328;2023-03-23T15:04:16;6.30;;;1.52;;
70549;SDS011;58101;48.658;2.328;2023-03-23T15:06:55;8.52;;;1.80;;
70549;SDS011;58101;48.658;2.328;2023-03-23T15:09:25;11.07;;;1.70;;
70549;SDS011;58101;48.658;2.328;2023-03-23T15:12:01;11.95;;;2.00;;
70549;SDS011;58101;48.658;2.328;2023-03-23T15:14:30;9.07;;;1.60;;
70549;SDS011;58101;48.658;2.328;2023-03-23T15:17:00;8.15;;;1.65;;
70549;SDS011;58101;48.658;2.328;2023-03-23T15:19:28;9.23;;;1.70;;
70549;SDS011;58101;48.658;2.328;2023-03-23T15:22:16;7.25;;;1.50;;
70549;SDS011;58101;48.658;2.328;2023-03-23T15:27:33;6.55;;;1.48;;
70549;SDS011;58101;48.658;2.328;2023-03-23T15:30:15;9.55;;;1.55;;
70549;SDS011;58101;48.658;2.328;2023-03-23T15:33:11;7.78;;;1.83;;
70549;SDS011;58101;48.658;2.328;2023-03-23T15:35:39;10.68;;;1.90;;
70549;SDS011;58101;48.658;2.328;2023-03-23T15:38:14;7.32;;;1.50;;
70549;SDS011;58101;48.658;2.328;2023-03-23T15:40:48;8.82;;;1.85;;
70549;SDS011;58101;48.658;2.328;2023-03-23T15:43:17;9.68;;;1.60;;
70549;SDS011;58101;48.658;2.328;2023-03-23T15:45:59;7.88;;;1.60;;
70549;SDS011;58101;48.658;2.328;2023-03-23T15:51:28;9.55;;;1.70;;
70549;SDS011;58101;48.658;2.328;2023-03-23T15:53:58;9.25;;;1.70;;
70549;SDS011;58101;48.658;2.328;2023-03-23T15:56:24;8.68;;;1.67;;
70549;SDS011;58101;48.658;2.328;2023-03-23T15:58:50;8.82;;;1.60;;
70549;SDS011;58101;48.658;2.328;2023-03-23T16:01:18;9.55;;;2.00;;
70549;SDS011;58101;48.658;2.328;2023-03-23T16:03:53;8.93;;;1.70;;
70549;SDS011;58101;48.658;2.328;2023-03-23T16:06:23;9.38;;;1.85;;
70549;SDS011;58101;48.658;2.328;2023-03-23T16:08:52;7.75;;;1.67;;
70549;SDS011;58101;48.658;2.328;2023-03-23T16:11:18;8.55;;;1.85;;
70549;SDS011;58101;48.658;2.328;2023-03-23T16:13:44;11.93;;;1.60;;
70549;SDS011;58101;48.658;2.328;2023-03-23T16:16:14;7.60;;;1.65;;
70549;SDS011;58101;48.658;2.328;2023-03-23T16:18:48;6.80;;;1.50;;
70549;SDS011;58101;48.658;2.328;2023-03-23T16:21:13;8.43;;;1.80;;
70549;SDS011;58101;48.658;2.328;2023-03-23T16:23:39;10.73;;;1.98;;
70549;SDS011;58101;48.658;2.328;2023-03-23T16:26:08;7.85;;;1.40;;
70549;SDS011;58101;48.658;2.328;2023-03-23T16:28:34;6.85;;;1.38;;
70549;SDS011;58101;48.658;2.328;2023-03-23T16:31:00;6.95;;;1.50;;
70549;SDS011;58101;48.658;2.328;2023-03-23T16:33:26;8.90;;;1.85;;
70549;SDS011;58101;48.658;2.328;2023-03-23T16:35:51;8.80;;;1.60;;
70549;SDS011;58101;48.658;2.328;2023-03-23T16:38:26;5.47;;;1.30;;
70549;SDS011;58101;48.658;2.328;2023-03-23T16:40:52;7.95;;;1.70;;
70549;SDS011;58101;48.658;2.328;2023-03-23T16:43:17;7.57;;;1.70;;
70549;SDS011;58101;48.658;2.328;2023-03-23T16:45:44;8.07;;;1.70;;
70549;SDS011;58101;48.658;2.328;2023-03-23T16:48:22;5.82;;;1.48;;
70549;SDS011;58101;48.658;2.328;2023-03-23T16:50:49;6.07;;;1.40;;
70549;SDS011;58101;48.658;2.328;2023-03-23T16:53:16;9.27;;;1.63;;
70549;SDS011;58101;48.658;2.328;2023-03-23T16:55:41;8.02;;;1.67;;
70549;SDS011;58101;48.658;2.328;2023-03-23T16:58:11;7.47;;;1.58;;
70549;SDS011;58101;48.658;2.328;2023-03-23T17:00:38;8.90;;;1.70;;
70549;SDS011;58101;48.658;2.328;2023-03-23T17:03:04;8.50;;;1.67;;
70549;SDS011;58101;48.658;2.328;2023-03-23T17:05:30;8.82;;;1.67;;
70549;SDS011;58101;48.658;2.328;2023-03-23T17:08:14;9.05;;;1.85;;
70549;SDS011;58101;48.658;2.328;2023-03-23T17:10:41;9.63;;;1.98;;
70549;SDS011;58101;48.658;2.328;2023-03-23T17:13:08;6.32;;;1.50;;
70549;SDS011;58101;48.658;2.328;2023-03-23T17:15:37;7.32;;;1.60;;
70549;SDS011;58101;48.658;2.328;2023-03-23T17:18:04;5.72;;;1.38;;
70549;SDS011;58101;48.658;2.328;2023-03-23T17:20:30;7.40;;;1.60;;
70549;SDS011;58101;48.658;2.328;2023-03-23T17:22:56;6.63;;;1.50;;
70549;SDS011;58101;48.658;2.328;2023-03-23T17:28:50;7.78;;;1.75;;
70549;SDS011;58101;48.658;2.328;2023-03-23T17:31:15;10.13;;;1.98;;
70549;SDS011;58101;48.658;2.328;2023-03-23T17:33:41;6.93;;;2.03;;
70549;SDS011;58101;48.658;2.328;2023-03-23T17:36:07;8.32;;;1.75;;
70549;SDS011;58101;48.658;2.328;2023-03-23T17:41:59;10.98;;;1.85;;
70549;SDS011;58101;48.658;2.328;2023-03-23T17:44:26;6.80;;;1.83;;
70549;SDS011;58101;48.658;2.328;2023-03-23T17:46:51;7.72;;;2.10;;
70549;SDS011;58101;48.658;2.328;2023-03-23T17:49:17;7.30;;;1.92;;
70549;SDS011;58101;48.658;2.328;2023-03-23T17:51:43;9.75;;;2.00;;
70549;SDS011;58101;48.658;2.328;2023-03-23T17:54:09;7.97;;;1.90;;
70549;SDS011;58101;48.658;2.328;2023-03-23T17:56:35;8.18;;;1.80;;
70549;SDS011;58101;48.658;2.328;2023-03-23T17:59:01;7.35;;;1.73;;
70549;SDS011;58101;48.658;2.328;2023-03-23T18:01:26;8.65;;;1.90;;